createdAt,value
2022-11-06T00:02:23.513Z,100481.00
2022-11-06T00:04:50.600Z,100487.00
2022-11-06T00:07:18.297Z,100488.00
2022-11-06T00:09:45.237Z,100484.00
2022-11-06T00:12:12.243Z,100482.00
2022-11-06T00:14:39.263Z,100486.00
2022-11-06T00:17:06.345Z,100491.00
2022-11-06T00:19:33.339Z,100492.00
2022-11-06T00:22:00.370Z,100492.00
2022-11-06T00:24:27.283Z,100499.00
2022-11-06T00:26:54.757Z,100483.00
2022-11-06T00:29:21.860Z,100487.00
2022-11-06T00:31:50.704Z,100496.00
2022-11-06T00:34:17.789Z,100497.00
2022-11-06T00:36:44.702Z,100495.00
2022-11-06T00:39:11.939Z,100491.00
2022-11-06T00:41:38.845Z,100494.00
2022-11-06T00:44:05.946Z,100488.00
2022-11-06T00:46:32.931Z,100489.00
2022-11-06T00:48:59.894Z,100489.00
2022-11-06T00:51:31.234Z,100490.00
2022-11-06T00:54:02.505Z,100487.00
2022-11-06T00:56:31.583Z,100485.00
2022-11-06T00:59:10.552Z,100482.00
2022-11-06T01:01:44.537Z,100487.00
2022-11-06T01:04:23.733Z,100492.00
2022-11-06T01:06:57.486Z,100483.00
2022-11-06T01:09:27.668Z,100487.00
2022-11-06T01:12:14.700Z,100479.00
2022-11-06T01:14:43.304Z,100473.00
2022-11-06T01:17:10.490Z,100478.00
2022-11-06T01:19:37.713Z,100481.00
2022-11-06T01:22:05.065Z,100486.00
2022-11-06T01:24:32.135Z,100478.00
2022-11-06T01:27:24.807Z,100480.00
2022-11-06T01:29:46.542Z,100480.00
2022-11-06T01:32:13.903Z,100484.00
2022-11-06T01:34:41.992Z,100476.00
2022-11-06T01:37:14.232Z,100479.00
2022-11-06T01:39:41.750Z,100489.00
2022-11-06T01:42:14.096Z,100491.00
2022-11-06T01:44:44.059Z,100493.00
2022-11-06T01:47:28.175Z,100494.00
2022-11-06T01:50:06.842Z,100491.00
2022-11-06T01:52:35.939Z,100488.00
2022-11-06T01:55:24.103Z,100465.00
2022-11-06T01:57:51.566Z,100480.00
2022-11-06T02:00:20.184Z,100483.00
2022-11-06T02:02:48.060Z,100475.00
2022-11-06T02:05:16.177Z,100476.00
2022-11-06T02:07:45.243Z,100476.00
2022-11-06T02:10:12.529Z,100482.00
2022-11-06T02:13:08.701Z,100482.00
2022-11-06T02:16:26.731Z,100480.00
2022-11-06T02:18:53.587Z,100484.00
2022-11-06T02:22:18.235Z,100485.00
2022-11-06T02:25:21.185Z,100488.00
2022-11-06T02:28:46.467Z,100473.00
2022-11-06T02:31:21.117Z,100488.00
2022-11-06T02:33:54.572Z,100484.00
2022-11-06T02:36:30.330Z,100483.00
2022-11-06T02:39:03.155Z,100476.00
2022-11-06T02:41:39.202Z,100475.00
2022-11-06T02:44:11.940Z,100482.00
2022-11-06T02:46:55.062Z,100476.00
2022-11-06T02:49:39.448Z,100469.00
2022-11-06T02:52:20.249Z,100473.00
2022-11-06T02:54:57.928Z,100473.00
2022-11-06T02:57:28.841Z,100466.00
2022-11-06T03:00:09.338Z,100472.00
2022-11-06T03:03:24.170Z,100462.00
2022-11-06T03:06:38.782Z,100472.00
2022-11-06T03:09:22.131Z,100468.00
2022-11-06T03:26:09.147Z,100481.00
2022-11-06T03:28:52.980Z,100480.00
2022-11-06T03:31:39.899Z,100473.00
2022-11-06T03:34:17.417Z,100471.00
2022-11-06T03:36:52.665Z,100471.00
2022-11-06T03:39:39.960Z,100476.00
2022-11-06T03:42:13.667Z,100478.00
2022-11-06T03:44:51.310Z,100490.00
2022-11-06T03:47:33.488Z,100482.00
2022-11-06T03:50:29.204Z,100491.00
2022-11-06T03:53:23.405Z,100500.00
2022-11-06T03:56:10.340Z,100483.00
2022-11-06T03:58:42.499Z,100488.00
2022-11-06T04:01:13.476Z,100487.00
2022-11-06T04:04:14.598Z,100479.00
2022-11-06T04:06:58.601Z,100478.00
2022-11-06T04:09:50.350Z,100482.00
2022-11-06T04:12:43.586Z,100480.00
2022-11-06T04:15:15.831Z,100485.00
2022-11-06T04:17:42.764Z,100481.00
2022-11-06T04:20:36.581Z,100480.00
2022-11-06T04:23:40.347Z,100475.00
2022-11-06T04:26:37.640Z,100472.00
2022-11-06T04:29:37.830Z,100474.00
2022-11-06T04:32:45.042Z,100468.00
2022-11-06T04:35:36.424Z,100459.00
2022-11-06T04:38:11.845Z,100456.00
2022-11-06T04:40:57.587Z,100450.00
2022-11-06T04:43:53.147Z,100456.00
2022-11-06T04:46:32.646Z,100458.00
2022-11-06T04:49:03.156Z,100453.00
2022-11-06T04:51:38.627Z,100456.00
2022-11-06T04:54:09.788Z,100456.00
2022-11-06T04:56:41.440Z,100436.00
2022-11-06T04:59:17.607Z,100453.00
2022-11-06T05:01:46.960Z,100455.00
2022-11-06T05:04:15.339Z,100456.00
2022-11-06T05:06:42.303Z,100460.00
2022-11-06T05:09:09.375Z,100453.00
2022-11-06T05:11:38.393Z,100464.00
2022-11-06T05:14:05.632Z,100456.00
2022-11-06T05:16:32.623Z,100453.00
2022-11-06T05:18:59.539Z,100458.00
2022-11-06T05:21:45.045Z,100452.00
2022-11-06T05:24:12.181Z,100435.00
2022-11-06T05:26:39.159Z,100457.00
2022-11-06T05:29:06.114Z,100461.00
2022-11-06T05:31:33.194Z,100462.00
2022-11-06T05:34:00.299Z,100455.00
2022-11-06T05:36:27.250Z,100462.00
2022-11-06T05:38:54.208Z,100460.00
2022-11-06T05:41:21.151Z,100464.00
2022-11-06T05:43:48.196Z,100476.00
2022-11-06T05:46:35.590Z,100477.00
2022-11-06T05:49:02.259Z,100483.00
2022-11-06T05:51:29.224Z,100484.00
2022-11-06T05:53:57.283Z,100481.00
2022-11-06T05:56:24.251Z,100476.00
2022-11-06T05:58:51.246Z,100484.00
2022-11-06T06:01:18.186Z,100485.00
2022-11-06T06:03:45.361Z,100480.00
2022-11-06T06:06:12.295Z,100478.00
2022-11-06T06:08:39.236Z,100484.00
2022-11-06T06:11:07.753Z,100486.00
2022-11-06T06:13:39.840Z,100498.00
2022-11-06T06:16:07.293Z,100490.00
2022-11-06T06:18:34.271Z,100501.00
2022-11-06T06:21:01.321Z,100493.00
2022-11-06T06:23:28.322Z,100486.00
2022-11-06T06:25:57.307Z,100496.00
2022-11-06T06:28:24.309Z,100486.00
2022-11-06T06:30:51.393Z,100479.00
2022-11-06T06:33:18.483Z,100494.00
2022-11-06T06:35:45.498Z,100499.00
2022-11-06T06:38:12.661Z,100496.00
2022-11-06T06:40:39.896Z,100492.00
2022-11-06T06:43:06.901Z,100494.00
2022-11-06T06:45:33.827Z,100496.00
2022-11-06T06:48:07.565Z,100506.00
2022-11-06T06:50:34.626Z,100510.00
2022-11-06T06:53:01.793Z,100513.00
2022-11-06T06:55:29.423Z,100504.00
2022-11-06T06:58:00.926Z,100509.00
2022-11-06T07:00:29.462Z,100500.00
2022-11-06T07:02:56.710Z,100515.00
2022-11-06T07:05:23.678Z,100510.00
2022-11-06T07:07:50.760Z,100514.00
2022-11-06T07:10:17.907Z,100512.00
2022-11-06T07:12:44.887Z,100514.00
2022-11-06T07:15:12.463Z,100502.00
2022-11-06T07:17:39.503Z,100517.00
2022-11-06T07:20:08.450Z,100513.00
2022-11-06T07:22:37.571Z,100492.00
2022-11-06T07:25:06.415Z,100482.00
2022-11-06T07:27:33.873Z,100514.00
2022-11-06T07:30:01.174Z,100519.00
2022-11-06T07:32:28.292Z,100517.00
2022-11-06T07:34:55.477Z,100510.00
2022-11-06T07:37:22.830Z,100500.00
2022-11-06T07:39:49.849Z,100523.00
2022-11-06T07:42:16.806Z,100536.00
2022-11-06T07:44:43.805Z,100534.00
2022-11-06T07:47:10.734Z,100532.00
2022-11-06T07:49:37.685Z,100537.00
2022-11-06T07:52:06.305Z,100514.00
2022-11-06T07:54:33.293Z,100533.00
2022-11-06T07:57:00.261Z,100529.00
2022-11-06T07:59:27.178Z,100530.00
2022-11-06T08:01:54.291Z,100507.00
2022-11-06T08:04:21.567Z,100537.00
2022-11-06T08:06:48.530Z,100540.00
2022-11-06T08:09:15.815Z,100546.00
2022-11-06T08:11:42.946Z,100548.00
2022-11-06T08:14:10.887Z,100545.00
2022-11-06T08:16:37.803Z,100546.00
2022-11-06T08:19:04.804Z,100546.00
2022-11-06T08:21:31.730Z,100550.00
2022-11-06T08:23:58.753Z,100548.00
2022-11-06T08:26:27.515Z,100559.00
2022-11-06T08:28:54.599Z,100544.00
2022-11-06T08:31:21.512Z,100548.00
2022-11-06T08:33:48.516Z,100547.00
2022-11-06T08:36:16.783Z,100558.00
2022-11-06T08:38:43.799Z,100562.00
2022-11-06T08:41:12.733Z,100551.00
2022-11-06T08:43:40.111Z,100549.00
2022-11-06T08:46:09.844Z,100554.00
2022-11-06T08:48:37.546Z,100551.00
2022-11-06T08:51:06.322Z,100554.00
2022-11-06T08:53:34.313Z,100558.00
2022-11-06T08:56:04.761Z,100554.00
2022-11-06T08:58:31.912Z,100559.00
2022-11-06T09:00:59.166Z,100561.00
2022-11-06T09:03:26.304Z,100569.00
2022-11-06T09:05:53.663Z,100571.00
2022-11-06T09:08:20.969Z,100575.00
2022-11-06T09:10:48.067Z,100576.00
2022-11-06T09:13:16.954Z,100591.00
2022-11-06T09:15:46.836Z,100579.00
2022-11-06T09:18:13.787Z,100590.00
2022-11-06T09:20:40.747Z,100586.00
2022-11-06T09:23:09.685Z,100581.00
2022-11-06T09:25:36.738Z,100590.00
2022-11-06T09:28:04.083Z,100588.00
2022-11-06T09:30:32.621Z,100593.00
2022-11-06T09:33:02.409Z,100601.00
2022-11-06T09:35:33.192Z,100591.00
2022-11-06T09:38:06.631Z,100588.00
2022-11-06T09:40:58.242Z,100588.00
2022-11-06T09:44:10.489Z,100591.00
2022-11-06T09:46:47.213Z,100596.00
2022-11-06T09:49:50.654Z,100586.00
2022-11-06T09:52:52.929Z,100578.00
2022-11-06T09:55:43.121Z,100580.00
2022-11-06T09:58:28.322Z,100574.00
2022-11-06T10:01:15.898Z,100569.00
2022-11-06T10:04:01.337Z,100559.00
2022-11-06T10:06:29.071Z,100559.00
2022-11-06T10:09:07.377Z,100552.00
2022-11-06T10:12:10.032Z,100554.00
2022-11-06T10:15:04.030Z,100553.00
2022-11-06T10:18:00.986Z,100553.00
2022-11-06T10:20:52.132Z,100552.00
2022-11-06T10:23:43.519Z,100555.00
2022-11-06T10:26:32.662Z,100561.00
2022-11-06T10:29:15.788Z,100555.00
2022-11-06T10:32:13.872Z,100550.00
2022-11-06T10:34:59.428Z,100548.00
2022-11-06T10:37:49.973Z,100548.00
2022-11-06T10:40:26.311Z,100546.00
2022-11-06T10:43:21.571Z,100538.00
2022-11-06T10:46:09.309Z,100521.00
2022-11-06T10:48:52.218Z,100535.00
2022-11-06T10:51:43.626Z,100536.00
2022-11-06T10:54:19.848Z,100531.00
2022-11-06T10:57:28.675Z,100516.00
2022-11-06T10:59:56.220Z,100515.00
2022-11-06T11:02:37.597Z,100514.00
2022-11-06T11:05:17.244Z,100513.00
2022-11-06T11:07:48.325Z,100505.00
2022-11-06T11:10:24.228Z,100504.00
2022-11-06T11:12:55.178Z,100510.00
2022-11-06T11:15:25.305Z,100506.00
2022-11-06T11:18:17.601Z,100494.00
2022-11-06T11:20:51.644Z,100489.00
2022-11-06T11:23:26.681Z,100492.00
2022-11-06T11:26:32.656Z,100490.00
2022-11-06T11:29:15.631Z,100455.00
2022-11-06T11:31:50.448Z,100473.00
2022-11-06T11:34:26.983Z,100478.00
2022-11-06T11:37:04.515Z,100476.00
2022-11-06T11:39:39.772Z,100468.00
2022-11-06T11:42:34.602Z,100470.00
2022-11-06T11:45:10.117Z,100469.00
2022-11-06T11:47:42.670Z,100472.00
2022-11-06T11:50:26.567Z,100471.00
2022-11-06T11:53:20.969Z,100477.00
2022-11-06T11:55:53.032Z,100470.00
2022-11-06T11:58:28.454Z,100478.00
2022-11-06T12:01:03.171Z,100447.00
2022-11-06T12:03:42.083Z,100474.00
2022-11-06T12:06:15.489Z,100469.00
2022-11-06T12:08:53.779Z,100465.00
2022-11-06T12:11:26.395Z,100468.00
2022-11-06T12:14:31.716Z,100463.00
2022-11-06T12:17:23.316Z,100457.00
2022-11-06T12:19:58.689Z,100462.00
2022-11-06T12:22:43.934Z,100456.00
2022-11-06T12:25:25.586Z,100423.00
2022-11-06T12:27:59.628Z,100447.00
2022-11-06T12:30:27.124Z,100440.00
2022-11-06T12:33:20.568Z,100446.00
2022-11-06T12:36:01.290Z,100455.00
2022-11-06T12:39:03.939Z,100444.00
2022-11-06T12:41:41.227Z,100444.00
2022-11-06T12:44:16.192Z,100434.00
2022-11-06T12:47:14.315Z,100439.00
2022-11-06T12:50:23.921Z,100446.00
2022-11-06T12:53:03.532Z,100439.00
2022-11-06T12:56:22.056Z,100442.00
2022-11-06T12:59:29.691Z,100439.00
2022-11-06T13:02:30.388Z,100416.00
2022-11-06T13:05:31.163Z,100437.00
2022-11-06T13:08:38.900Z,100434.00
2022-11-06T13:11:30.254Z,100435.00
2022-11-06T13:14:26.457Z,100431.00
2022-11-06T13:17:21.960Z,100429.00
2022-11-06T13:19:57.246Z,100436.00
2022-11-06T13:22:43.004Z,100421.00
2022-11-06T13:37:07.220Z,100436.00
2022-11-06T13:39:46.330Z,100441.00
2022-11-06T13:42:33.629Z,100431.00
2022-11-06T13:45:02.742Z,100427.00
2022-11-06T13:48:07.224Z,100427.00
2022-11-06T13:51:15.093Z,100427.00
2022-11-06T13:53:59.493Z,100423.00
2022-11-06T13:57:05.517Z,100424.00
2022-11-06T13:59:50.517Z,100416.00
2022-11-06T14:02:35.586Z,100422.00
2022-11-06T14:05:35.633Z,100428.00
2022-11-06T14:08:13.727Z,100420.00
2022-11-06T14:10:53.064Z,100422.00
2022-11-06T14:13:30.095Z,100423.00
2022-11-06T14:16:18.240Z,100422.00
2022-11-06T14:19:06.920Z,100422.00
2022-11-06T14:21:37.124Z,100418.00
2022-11-06T14:24:33.141Z,100425.00
2022-11-06T14:27:23.840Z,100422.00
2022-11-06T14:30:17.826Z,100432.00
2022-11-06T14:32:48.264Z,100422.00
2022-11-06T14:35:33.132Z,100435.00
2022-11-06T14:38:33.870Z,100438.00
2022-11-06T14:41:02.612Z,100442.00
2022-11-06T14:43:34.717Z,100433.00
2022-11-06T14:46:22.614Z,100451.00
2022-11-06T14:48:56.818Z,100433.00
2022-11-06T14:51:31.779Z,100434.00
2022-11-06T14:54:06.783Z,100435.00
2022-11-06T14:56:39.633Z,100425.00
2022-11-06T14:59:32.403Z,100435.00
2022-11-06T15:02:23.825Z,100433.00
2022-11-06T15:05:01.682Z,100432.00
2022-11-06T15:08:05.915Z,100433.00
2022-11-06T15:10:44.988Z,100431.00
2022-11-06T15:13:17.994Z,100424.00
2022-11-06T15:15:55.632Z,100420.00
2022-11-06T15:18:26.847Z,100415.00
2022-11-06T15:21:02.947Z,100414.00
2022-11-06T15:23:41.086Z,100419.00
2022-11-06T15:26:36.679Z,100416.00
2022-11-06T15:29:16.052Z,100416.00
2022-11-06T15:31:48.005Z,100411.00
2022-11-06T15:34:30.003Z,100409.00
2022-11-06T15:37:12.677Z,100412.00
2022-11-06T15:40:00.210Z,100410.00
2022-11-06T15:42:37.345Z,100402.00
2022-11-06T15:45:15.696Z,100396.00
2022-11-06T15:48:06.489Z,100394.00
2022-11-06T15:50:42.797Z,100388.00
2022-11-06T15:53:22.608Z,100394.00
2022-11-06T15:56:02.937Z,100376.00
2022-11-06T15:58:34.726Z,100385.00
2022-11-06T16:01:05.313Z,100378.00
2022-11-06T16:03:46.731Z,100387.00
2022-11-06T16:06:14.054Z,100382.00
2022-11-06T16:08:42.146Z,100387.00
2022-11-06T16:11:17.096Z,100393.00
2022-11-06T16:13:46.748Z,100383.00
2022-11-06T16:16:40.811Z,100392.00
2022-11-06T16:19:20.446Z,100384.00
2022-11-06T16:22:18.009Z,100391.00
2022-11-06T16:25:00.538Z,100392.00
2022-11-06T16:27:32.344Z,100398.00
2022-11-06T16:30:03.546Z,100387.00
2022-11-06T16:32:39.251Z,100399.00
2022-11-06T16:35:36.839Z,100391.00
2022-11-06T16:38:39.139Z,100318.00
2022-11-06T16:41:03.280Z,100386.00
2022-11-06T16:43:30.355Z,100386.00
2022-11-06T16:46:08.178Z,100373.00
2022-11-06T16:48:39.437Z,100373.00
2022-11-06T16:51:31.166Z,100371.00
2022-11-06T16:54:01.631Z,100389.00
2022-11-06T16:56:32.868Z,100383.00
2022-11-06T16:59:25.448Z,100376.00
2022-11-06T17:01:53.350Z,100381.00
2022-11-06T17:04:29.841Z,100377.00
2022-11-06T17:06:58.581Z,100354.00
2022-11-06T17:09:34.652Z,100369.00
2022-11-06T17:12:03.783Z,100351.00
2022-11-06T17:14:32.687Z,100362.00
2022-11-06T17:17:02.696Z,100350.00
2022-11-06T17:19:30.807Z,100342.00
2022-11-06T17:21:58.539Z,100352.00
2022-11-06T17:24:41.452Z,100350.00
2022-11-06T17:27:10.735Z,100354.00
2022-11-06T17:29:38.766Z,100353.00
2022-11-06T17:32:08.567Z,100340.00
2022-11-06T17:34:35.637Z,100358.00
2022-11-06T17:37:02.762Z,100344.00
2022-11-06T17:39:32.979Z,100348.00
2022-11-06T17:42:00.045Z,100341.00
2022-11-06T17:57:24.382Z,100349.00
2022-11-06T17:59:51.558Z,100335.00
2022-11-06T18:02:34.924Z,100339.00
2022-11-06T18:05:06.849Z,100345.00
2022-11-06T18:07:36.251Z,100339.00
2022-11-06T18:10:06.979Z,100340.00
2022-11-06T18:12:33.945Z,100341.00
2022-11-06T18:15:00.966Z,100337.00
2022-11-06T18:17:27.924Z,100335.00
2022-11-06T18:19:55.153Z,100332.00
2022-11-06T18:22:22.359Z,100331.00
2022-11-06T18:24:49.370Z,100320.00
2022-11-06T18:27:16.369Z,100311.00
2022-11-06T18:29:43.296Z,100318.00
2022-11-06T18:32:10.316Z,100308.00
2022-11-06T18:34:37.289Z,100312.00
2022-11-06T18:37:04.353Z,100321.00
2022-11-06T18:39:31.378Z,100326.00
2022-11-06T18:41:59.391Z,100331.00
2022-11-06T18:44:26.550Z,100335.00
2022-11-06T18:46:53.571Z,100331.00
2022-11-06T18:49:20.543Z,100325.00
2022-11-06T18:51:47.751Z,100324.00
2022-11-06T18:54:15.035Z,100331.00
2022-11-06T18:56:42.423Z,100326.00
2022-11-06T18:59:16.489Z,100331.00
2022-11-06T19:01:43.985Z,100333.00
2022-11-06T19:04:11.275Z,100331.00
2022-11-06T19:06:39.569Z,100336.00
2022-11-06T19:09:08.823Z,100339.00
2022-11-06T19:11:36.076Z,100339.00
2022-11-06T19:14:03.282Z,100335.00
2022-11-06T19:16:30.309Z,100339.00
2022-11-06T19:21:30.399Z,100352.00
2022-11-06T19:24:05.429Z,100349.00
2022-11-06T19:26:37.143Z,100345.00
2022-11-06T19:29:08.631Z,100342.00
2022-11-06T19:31:37.941Z,100320.00
2022-11-06T19:34:07.449Z,100345.00
2022-11-06T19:36:36.203Z,100353.00
2022-11-06T19:39:04.093Z,100344.00
2022-11-06T19:41:31.055Z,100350.00
2022-11-06T19:43:58.149Z,100349.00
2022-11-06T19:46:30.822Z,100340.00
2022-11-06T19:49:03.801Z,100347.00
2022-11-06T19:51:33.185Z,100346.00
2022-11-06T19:54:01.633Z,100325.00
2022-11-06T19:56:28.856Z,100346.00
2022-11-06T19:58:56.018Z,100343.00
2022-11-06T20:01:23.173Z,100346.00
2022-11-06T20:03:50.386Z,100333.00
2022-11-06T20:06:18.017Z,100333.00
2022-11-06T20:08:50.284Z,100334.00
2022-11-06T20:11:18.198Z,100326.00
2022-11-06T20:13:46.502Z,100333.00
2022-11-06T20:16:19.881Z,100319.00
2022-11-06T20:18:57.339Z,100339.00
2022-11-06T20:21:28.118Z,100331.00
2022-11-06T20:23:58.261Z,100325.00
2022-11-06T20:26:25.704Z,100335.00
2022-11-06T20:28:55.458Z,100332.00
2022-11-06T20:31:23.410Z,100335.00
2022-11-06T20:33:52.323Z,100337.00
2022-11-06T20:36:25.709Z,100338.00
2022-11-06T20:38:56.494Z,100308.00
2022-11-06T20:41:24.690Z,100310.00
2022-11-06T20:43:53.196Z,100313.00
2022-11-06T20:46:21.188Z,100305.00
2022-11-06T20:48:48.733Z,100308.00
2022-11-06T20:51:23.584Z,100308.00
2022-11-06T20:53:51.540Z,100301.00
2022-11-06T20:56:25.098Z,100310.00
2022-11-06T20:58:55.130Z,100301.00
2022-11-06T21:01:29.127Z,100301.00
2022-11-06T21:03:57.625Z,100303.00
2022-11-06T21:06:26.698Z,100301.00
2022-11-06T21:08:54.539Z,100299.00
2022-11-06T21:11:27.766Z,100301.00
2022-11-06T21:13:56.001Z,100298.00
2022-11-06T21:16:26.950Z,100287.00
2022-11-06T21:18:55.292Z,100274.00
2022-11-06T21:21:26.790Z,100287.00
2022-11-06T21:23:56.165Z,100284.00
2022-11-06T21:26:31.314Z,100271.00
2022-11-06T21:28:58.682Z,100275.00
2022-11-06T21:31:28.956Z,100276.00
2022-11-06T21:33:59.454Z,100268.00
2022-11-06T21:36:36.669Z,100271.00
2022-11-06T21:39:12.531Z,100280.00
2022-11-06T21:41:39.816Z,100266.00
2022-11-06T21:44:08.068Z,100265.00
2022-11-06T21:46:44.196Z,100272.00
2022-11-06T21:49:13.510Z,100267.00
2022-11-06T21:51:40.603Z,100266.00
2022-11-06T21:54:27.981Z,100263.00
2022-11-06T21:56:55.145Z,100259.00
2022-11-06T21:59:27.635Z,100265.00
2022-11-06T22:01:55.161Z,100257.00
2022-11-06T22:04:22.888Z,100255.00
2022-11-06T22:06:49.951Z,100247.00
2022-11-06T22:09:21.979Z,100254.00
2022-11-06T22:11:51.701Z,100250.00
2022-11-06T22:14:18.762Z,100238.00
2022-11-06T22:16:47.408Z,100250.00
2022-11-06T22:19:16.330Z,100252.00
2022-11-06T22:21:43.890Z,100247.00
2022-11-06T22:24:17.377Z,100252.00
2022-11-06T22:26:44.425Z,100248.00
2022-11-06T22:29:14.184Z,100247.00
2022-11-06T22:31:41.638Z,100238.00
2022-11-06T22:34:11.586Z,100245.00
2022-11-06T22:36:39.819Z,100237.00
2022-11-06T22:39:09.072Z,100242.00
2022-11-06T22:41:37.264Z,100242.00
2022-11-06T22:44:05.973Z,100230.00
2022-11-06T22:46:34.002Z,100241.00
2022-11-06T22:49:01.281Z,100242.00
2022-11-06T22:51:31.044Z,100235.00
2022-11-06T22:53:59.967Z,100245.00
2022-11-06T22:56:29.437Z,100245.00
2022-11-06T22:59:07.792Z,100248.00
2022-11-06T23:01:40.332Z,100249.00
2022-11-06T23:04:18.245Z,100238.00
2022-11-06T23:06:45.912Z,100234.00
2022-11-06T23:09:14.084Z,100235.00
2022-11-06T23:11:41.497Z,100224.00
2022-11-06T23:14:09.344Z,100226.00
2022-11-06T23:16:55.933Z,100228.00
2022-11-06T23:19:24.380Z,100230.00
2022-11-06T23:21:52.514Z,100225.00
2022-11-06T23:24:19.516Z,100227.00
2022-11-06T23:39:05.444Z,100229.00
2022-11-06T23:41:45.917Z,100226.00
2022-11-06T23:44:33.837Z,100222.00
2022-11-06T23:47:01.771Z,100221.00
2022-11-06T23:49:29.140Z,100217.00
2022-11-06T23:51:58.900Z,100127.00
2022-11-06T23:54:26.009Z,100204.00
2022-11-06T23:56:53.248Z,100211.00
2022-11-06T23:59:20.425Z,100214.00
